Time;durP1;ratioP1;P1;durP2;ratioP2;P2;SDS_P1;SDS_P2;PMS_P1;PMS_P2;Temp;Humidity;BMP_temperature;BMP_pressure;BME280_temperature;BME280_humidity;BME280_pressure;Samples;Min_cycle;Max_cycle;Signal;HPM_P1;HPM_P2
2023/09/19 00:00:06;;;;;;;;;5.00;0.75;;;;;19.07;70.82;100984.91;6187828;22;45668;-71
2023/09/19 00:02:33;;;;;;;;;0.00;0.00;;;;;18.87;70.71;100954.56;6215692;22;45364;-71
2023/09/19 00:04:58;;;;;;;;;2.00;0.25;;;;;19.15;70.46;101006.94;6215231;22;45237;-71
2023/09/19 00:07:24;;;;;;;;;1.25;0.75;;;;;18.92;70.70;100966.94;6215494;22;45265;-71
2023/09/19 00:09:49;;;;;;;;;0.00;0.00;;;;;19.02;70.88;100987.03;6187821;22;45211;-71
2023/09/19 00:12:15;;;;;;;;;0.25;0.25;;;;;18.95;70.87;100975.75;6215577;22;45487;-71
2023/09/19 00:14:40;;;;;;;;;0.50;0.00;;;;;18.98;70.81;100988.22;6215189;22;45617;-71
2023/09/19 00:17:08;;;;;;;;;1.00;1.00;;;;;18.98;71.05;100988.22;6215463;22;45276;-71
2023/09/19 00:19:37;;;;;;;;;0.50;0.50;;;;;19.02;70.95;100997.84;6188332;22;45527;-71
2023/09/19 00:22:03;;;;;;;;;2.00;0.00;;;;;18.97;70.81;101002.69;6215522;22;45253;-71
2023/09/19 00:24:29;;;;;;;;;0.00;0.00;;;;;18.93;71.12;100998.44;6214986;22;45250;-71
2023/09/19 00:26:55;;;;;;;;;4.25;0.50;;;;;18.87;71.62;100992.44;6215129;22;46214;-71
2023/09/19 00:29:21;;;;;;;;;2.00;1.00;;;;;18.93;71.71;101012.84;6215031;22;45409;-71
2023/09/19 00:31:46;;;;;;;;;0.00;0.00;;;;;18.69;71.83;100974.63;6187943;22;45348;-71
2023/09/19 00:34:12;;;;;;;;;0.25;0.00;;;;;18.86;71.55;101000.66;6215212;22;45258;-71
2023/09/19 00:36:42;;;;;;;;;0.75;0.75;;;;;18.91;71.20;101012.06;6215323;22;45734;-71
2023/09/19 00:39:08;;;;;;;;;0.50;0.50;;;;;18.84;71.03;101008.00;6215211;22;45249;-71
2023/09/19 00:41:35;;;;;;;;;0.50;0.00;;;;;18.90;71.49;101026.56;6215589;22;45285;-71
2023/09/19 00:44:02;;;;;;;;;0.00;0.00;;;;;18.83;71.35;101007.13;6215229;22;45393;-71
2023/09/19 00:46:28;;;;;;;;;1.25;0.00;;;;;18.87;71.41;101015.91;6214870;22;45598;-71
2023/09/19 00:48:53;;;;;;;;;1.00;0.00;;;;;18.85;71.23;101016.00;6215458;22;45353;-71
2023/09/19 00:51:22;;;;;;;;;0.00;0.00;;;;;18.86;71.63;101031.28;6215560;22;45300;-71
2023/09/19 00:53:47;;;;;;;;;2.00;0.00;;;;;18.63;71.56;100983.16;6214905;22;45244;-71
2023/09/19 00:56:14;;;;;;;;;1.50;1.00;;;;;18.85;71.26;101023.28;6187860;22;47362;-71
2023/09/19 00:58:40;;;;;;;;;0.50;0.50;;;;;18.91;71.75;101038.22;6215417;22;45184;-70
2023/09/19 01:01:06;;;;;;;;;2.50;0.50;;;;;18.78;71.50;101019.19;6188201;22;45403;-70
2023/09/19 01:03:33;;;;;;;;;0.00;0.00;;;;;18.85;71.83;101032.25;6188053;22;45535;-71
2023/09/19 01:06:02;;;;;;;;;1.00;1.00;;;;;18.77;72.00;101017.44;6214763;22;46047;-71
2023/09/19 01:08:29;;;;;;;;;0.00;0.00;;;;;18.51;71.86;100977.53;6202300;22;45414;-71
2023/09/19 01:11:13;;;;;;;;;0.50;0.00;;;;;18.64;71.93;100998.41;6215579;22;45327;-71
2023/09/19 01:14:08;;;;;;;;;0.50;0.50;;;;;18.84;72.32;101029.63;6215747;22;45442;-71
2023/09/19 01:16:50;;;;;;;;;2.00;0.00;;;;;18.80;72.13;101030.78;6199199;22;46454;-71
2023/09/19 01:19:53;;;;;;;;;0.50;0.50;;;;;18.83;72.20;101038.72;6216720;22;45342;-71
2023/09/19 01:22:29;;;;;;;;;1.75;1.00;;;;;18.76;72.04;101038.22;6216554;22;45490;-71
2023/09/19 01:25:23;;;;;;;;;2.75;1.00;;;;;18.61;72.25;101015.69;6216351;22;45316;-71
2023/09/19 01:28:07;;;;;;;;;1.50;0.00;;;;;18.79;72.33;101045.25;6214395;22;45335;-71
2023/09/19 01:30:39;;;;;;;;;0.00;0.00;;;;;18.74;72.36;101031.16;6216477;22;45309;-71
2023/09/19 01:33:06;;;;;;;;;1.00;1.00;;;;;18.46;72.60;100993.19;6189428;22;45282;-71
2023/09/19 01:35:32;;;;;;;;;0.50;0.50;;;;;18.70;72.65;101028.63;6216473;22;45407;-71
2023/09/19 01:37:59;;;;;;;;;0.00;0.00;;;;;18.69;72.71;101034.13;6216684;22;46162;-71
2023/09/19 01:40:25;;;;;;;;;0.25;0.00;;;;;18.48;72.89;101007.47;6215815;22;45317;-71
2023/09/19 01:43:00;;;;;;;;;1.00;0.50;;;;;18.61;72.10;101029.22;6189398;22;45351;-71
2023/09/19 01:45:35;;;;;;;;;1.00;0.50;;;;;18.65;72.36;101030.75;6189151;22;45352;-71
2023/09/19 01:48:31;;;;;;;;;0.50;0.50;;;;;18.54;71.74;101014.31;6188202;22;47580;-70
2023/09/19 01:51:00;;;;;;;;;1.00;1.00;;;;;18.70;72.06;101047.56;6215926;22;45282;-70
2023/09/19 01:53:56;;;;;;;;;3.50;0.50;;;;;18.70;72.51;101044.84;6216384;22;45232;-70
2023/09/19 01:56:57;;;;;;;;;0.50;0.50;;;;;18.67;72.31;101047.72;6215927;22;45471;-70
2023/09/19 01:59:28;;;;;;;;;0.00;0.00;;;;;18.59;72.41;101033.81;6211310;22;45411;-71
2023/09/19 02:01:55;;;;;;;;;2.00;1.00;;;;;18.56;72.62;101030.44;6188924;22;45391;-70
2023/09/19 02:04:20;;;;;;;;;1.00;1.00;;;;;18.61;72.78;101042.72;6189011;22;45337;-70
2023/09/19 02:06:47;;;;;;;;;4.25;0.50;;;;;18.57;72.40;101043.88;6216340;22;45475;-70
2023/09/19 02:09:14;;;;;;;;;1.00;1.00;;;;;18.59;72.17;101060.84;6188285;22;48114;-71
2023/09/19 02:11:40;;;;;;;;;0.00;0.00;;;;;18.40;72.47;101023.28;6216453;22;45205;-71
2023/09/19 02:14:08;;;;;;;;;2.25;0.50;;;;;18.56;72.52;101050.25;6216096;22;45302;-71
2023/09/19 02:16:34;;;;;;;;;1.00;1.00;;;;;18.48;72.40;101044.44;6215910;22;45381;-71
2023/09/19 02:19:00;;;;;;;;;0.50;0.25;;;;;18.34;72.65;101029.03;6216251;22;46142;-71
2023/09/19 02:21:25;;;;;;;;;1.00;1.00;;;;;18.50;72.28;101056.03;6215782;22;45322;-70
2023/09/19 02:23:51;;;;;;;;;1.25;0.00;;;;;18.33;72.32;101035.44;6215538;22;45348;-70
2023/09/19 02:26:18;;;;;;;;;2.00;1.00;;;;;18.42;72.07;101053.78;6215698;22;45407;-70
2023/09/19 02:28:45;;;;;;;;;0.75;0.75;;;;;18.27;72.52;101028.53;6215947;22;46113;-71
2023/09/19 02:31:11;;;;;;;;;1.75;1.75;;;;;18.22;72.86;101014.44;6216483;22;45316;-71
2023/09/19 02:33:37;;;;;;;;;1.00;1.00;;;;;18.21;72.94;101011.81;6216357;22;45402;-70
2023/09/19 02:36:03;;;;;;;;;1.75;1.75;;;;;18.19;72.76;101006.50;6189062;22;45815;-71
2023/09/19 02:38:29;;;;;;;;;2.00;0.75;;;;;18.15;72.76;101007.69;6188766;22;47035;-71
2023/09/19 02:40:55;;;;;;;;;0.75;0.00;;;;;18.37;72.68;101045.06;6216448;22;45337;-70
2023/09/19 02:43:21;;;;;;;;;0.00;0.00;;;;;18.40;72.52;101046.72;6188838;22;45413;-70
2023/09/19 02:45:49;;;;;;;;;2.00;1.00;;;;;18.36;72.53;101053.28;6188986;22;45480;-71
2023/09/19 02:48:15;;;;;;;;;1.50;0.25;;;;;18.34;72.48;101042.56;6215811;22;45350;-70
2023/09/19 02:50:40;;;;;;;;;1.50;1.00;;;;;18.30;72.52;101043.72;6216284;22;45202;-70
2023/09/19 02:53:06;;;;;;;;;1.00;1.00;;;;;18.20;72.78;101031.72;6188982;22;45398;-71
2023/09/19 02:55:32;;;;;;;;;0.00;0.00;;;;;18.15;72.46;101029.28;6215749;22;45234;-70
2023/09/19 02:57:58;;;;;;;;;1.00;1.00;;;;;18.29;72.85;101059.06;6216145;22;45424;-70
2023/09/19 03:00:24;;;;;;;;;1.00;1.00;;;;;18.20;72.34;101045.22;6216304;22;45315;-71
2023/09/19 03:02:52;;;;;;;;;1.00;1.00;;;;;18.26;72.99;101058.34;6216264;22;45456;-71
2023/09/19 03:05:18;;;;;;;;;1.00;1.00;;;;;18.23;72.94;101048.63;6215670;22;45375;-71
2023/09/19 03:07:46;;;;;;;;;1.00;1.00;;;;;18.15;72.78;101038.25;6215909;22;45285;-71
2023/09/19 03:10:12;;;;;;;;;3.50;2.50;;;;;18.17;72.88;101048.97;6188369;22;45338;-71
2023/09/19 03:12:40;;;;;;;;;3.50;1.00;;;;;18.11;72.85;101033.16;6216121;22;45427;-71
2023/09/19 03:15:06;;;;;;;;;3.00;2.25;;;;;18.14;72.92;101039.22;6215530;22;45317;-71
2023/09/19 03:17:32;;;;;;;;;2.00;1.00;;;;;18.10;72.99;101029.56;6216180;22;45528;-71
2023/09/19 03:19:57;;;;;;;;;2.50;1.50;;;;;18.20;72.96;101050.63;6216086;22;45257;-71
2023/09/19 03:22:24;;;;;;;;;3.00;2.00;;;;;18.09;72.98;101037.75;6188742;22;45226;-70
2023/09/19 03:24:50;;;;;;;;;3.00;1.00;;;;;18.19;72.81;101040.78;6215457;22;45254;-71
2023/09/19 03:27:16;;;;;;;;;2.00;1.00;;;;;18.11;72.85;101033.16;6188504;22;47232;-71
2023/09/19 03:29:42;;;;;;;;;1.00;1.00;;;;;18.05;72.83;101025.41;6216024;22;45245;-70
2023/09/19 03:32:10;;;;;;;;;2.00;1.00;;;;;18.22;72.93;101052.25;6216038;22;45504;-70
2023/09/19 03:34:38;;;;;;;;;4.00;2.00;;;;;18.19;72.64;101043.47;6214730;22;45395;-70
2023/09/19 03:37:06;;;;;;;;;1.50;1.00;;;;;18.12;73.03;101032.16;6215380;22;45979;-71
2023/09/19 03:39:32;;;;;;;;;2.75;1.00;;;;;18.09;72.83;101027.84;6215411;22;45279;-71
2023/09/19 03:41:57;;;;;;;;;1.50;1.50;;;;;18.20;73.04;101042.53;6216073;22;45349;-71
2023/09/19 03:44:23;;;;;;;;;1.00;1.00;;;;;18.11;72.66;101034.00;6215181;22;45303;-71
2023/09/19 03:46:48;;;;;;;;;1.00;1.00;;;;;18.08;72.84;101030.63;6188074;22;47861;-71
2023/09/19 03:49:13;;;;;;;;;1.00;1.00;;;;;18.15;72.63;101046.34;6215825;22;45362;-71
2023/09/19 03:51:41;;;;;;;;;1.00;0.75;;;;;18.15;72.77;101050.91;6216444;22;45677;-71
2023/09/19 03:54:07;;;;;;;;;3.75;1.00;;;;;18.13;72.61;101053.69;6215293;22;45456;-71
2023/09/19 03:56:32;;;;;;;;;2.50;2.00;;;;;18.09;72.88;101044.03;6215398;22;45235;-70
2023/09/19 03:58:58;;;;;;;;;0.25;0.25;;;;;18.06;72.83;101051.44;6215858;22;45327;-70
2023/09/19 04:01:23;;;;;;;;;3.00;1.00;;;;;18.07;73.03;101042.38;6216013;22;45190;-71
2023/09/19 04:03:50;;;;;;;;;2.00;2.00;;;;;17.82;72.39;100997.00;6215831;22;45249;-71
2023/09/19 04:06:16;;;;;;;;;2.00;1.25;;;;;18.06;72.63;101040.63;6215511;22;45276;-71
2023/09/19 04:08:43;;;;;;;;;0.50;0.50;;;;;18.01;72.94;101030.13;6187806;22;45426;-71
2023/09/19 04:11:08;;;;;;;;;3.50;1.00;;;;;17.99;72.91;101036.56;6188545;22;45396;-71
2023/09/19 04:13:34;;;;;;;;;3.00;1.00;;;;;18.02;72.91;101044.47;6215159;22;45341;-71
2023/09/19 04:15:59;;;;;;;;;1.00;1.00;;;;;17.75;72.56;100988.41;6215596;22;45711;-70
2023/09/19 04:18:25;;;;;;;;;3.75;1.50;;;;;17.77;72.76;101003.56;6215718;22;45372;-71
2023/09/19 04:20:50;;;;;;;;;1.25;1.25;;;;;17.95;72.81;101034.03;6188486;22;45333;-70
2023/09/19 04:23:16;;;;;;;;;0.75;0.75;;;;;17.91;72.99;101024.38;6188205;22;45473;-70
2023/09/19 04:25:42;;;;;;;;;1.00;1.00;;;;;17.75;72.69;100991.97;6215266;22;45362;-71
2023/09/19 04:28:10;;;;;;;;;2.00;1.00;;;;;17.99;72.58;101033.84;6215642;22;45299;-71
2023/09/19 04:30:35;;;;;;;;;2.50;1.25;;;;;17.65;72.38;100988.06;6215425;22;45305;-71
2023/09/19 04:33:01;;;;;;;;;3.25;1.00;;;;;17.92;72.55;101030.63;6215601;22;45314;-71
2023/09/19 04:35:30;;;;;;;;;2.00;1.00;;;;;17.99;72.83;101045.50;6215643;22;45325;-70
2023/09/19 04:37:56;;;;;;;;;3.50;1.00;;;;;17.95;72.89;101042.13;6215198;22;45259;-71
2023/09/19 04:40:22;;;;;;;;;2.25;1.50;;;;;17.99;72.92;101044.66;6187910;22;45491;-70
2023/09/19 04:42:57;;;;;;;;;3.00;1.00;;;;;17.93;72.99;101041.34;6215722;22;45277;-70
2023/09/19 04:45:23;;;;;;;;;2.50;1.00;;;;;17.83;73.01;101023.91;6187772;22;46223;-71
2023/09/19 04:47:49;;;;;;;;;2.00;1.25;;;;;17.71;73.05;101003.91;6216525;22;45611;-71
2023/09/19 04:50:14;;;;;;;;;2.25;1.25;;;;;17.84;73.29;101033.78;6216464;22;45440;-71
2023/09/19 04:52:44;;;;;;;;;2.75;2.75;;;;;17.81;73.07;101030.34;6188607;22;45462;-71
2023/09/19 04:55:16;;;;;;;;;1.00;1.00;;;;;17.84;72.84;101036.47;6215813;22;45474;-71
2023/09/19 04:57:47;;;;;;;;;2.25;1.00;;;;;17.65;72.81;101009.66;6216595;22;45253;-71
2023/09/19 05:00:14;;;;;;;;;3.00;2.00;;;;;17.84;72.91;101051.78;6216517;22;45333;-71
2023/09/19 05:02:43;;;;;;;;;2.00;1.00;;;;;17.75;72.90;101039.69;6216515;22;45298;-71
2023/09/19 05:05:14;;;;;;;;;5.25;1.75;;;;;17.83;73.19;101055.47;6189100;22;47194;-71
2023/09/19 05:07:41;;;;;;;;;1.25;1.25;;;;;17.85;72.89;101064.34;6215919;22;45468;-71
2023/09/19 05:10:07;;;;;;;;;2.00;1.00;;;;;17.75;73.17;101051.34;6216487;22;45209;-70
2023/09/19 05:12:35;;;;;;;;;3.00;1.00;;;;;17.77;73.16;101056.66;6189478;22;45283;-71
2023/09/19 05:15:08;;;;;;;;;2.00;2.00;;;;;17.68;73.19;101038.31;6216145;22;45451;-71
2023/09/19 05:17:35;;;;;;;;;3.00;1.00;;;;;17.78;73.16;101061.13;6189140;22;45464;-71
2023/09/19 05:20:15;;;;;;;;;4.50;2.25;;;;;17.83;73.47;101064.44;6216466;22;45313;-71
2023/09/19 05:22:43;;;;;;;;;3.25;2.00;;;;;17.57;73.23;101020.03;6216467;22;45354;-71
2023/09/19 05:25:09;;;;;;;;;2.50;1.75;;;;;17.66;72.99;101048.31;6215867;22;45398;-71
2023/09/19 05:27:35;;;;;;;;;3.75;1.00;;;;;17.81;73.33;101070.84;6216575;22;45689;-71
2023/09/19 05:30:00;;;;;;;;;3.00;1.00;;;;;17.75;73.13;101067.56;6189146;22;45311;-70
2023/09/19 05:32:25;;;;;;;;;1.50;1.50;;;;;17.75;73.05;101072.97;6216200;22;45570;-71
2023/09/19 05:34:56;;;;;;;;;1.50;1.50;;;;;17.65;73.45;101063.66;6188131;22;52947;-70
2023/09/19 05:37:23;;;;;;;;;1.00;1.00;;;;;17.66;73.36;101072.59;6216537;22;45345;-71
2023/09/19 05:39:48;;;;;;;;;1.75;1.75;;;;;17.48;73.10;101034.06;6216362;22;45412;-70
2023/09/19 05:42:14;;;;;;;;;5.25;2.00;;;;;17.60;73.43;101068.44;6188496;22;45355;-70
2023/09/19 05:44:39;;;;;;;;;1.50;1.00;;;;;17.60;73.66;101068.44;6215640;22;46601;-70
2023/09/19 05:47:04;;;;;;;;;5.50;2.50;;;;;17.41;73.33;101042.50;6188267;22;45570;-69
2023/09/19 05:49:30;;;;;;;;;1.00;1.00;;;;;17.54;73.53;101066.06;6187049;22;45308;-72
2023/09/19 05:52:40;;;;;;;;;;;;;;;;;;;;;
2023/09/19 05:55:53;;;;;;;;;3.00;1.25;;;;;17.66;73.27;101092.41;6212667;22;75237;-68
2023/09/19 05:58:34;;;;;;;;;;;;;;;;;;;;;
2023/09/19 06:01:36;;;;;;;;;;;;;;;;;;;;;
2023/09/19 06:04:37;;;;;;;;;;;;;;;;;;;;;
2023/09/19 06:14:52;;;;;;;;;;;;;;;;;;;;;
2023/09/19 06:18:05;;;;;;;;;;;;;;;;;;;;;
2023/09/19 06:20:22;;;;;;;;;3.00;1.00;;;;;17.37;73.74;101070.63;6205551;22;46561;-70
2023/09/19 06:23:05;;;;;;;;;1.75;1.25;;;;;17.31;73.63;101068.25;6188308;22;45798;-67
2023/09/19 06:25:51;;;;;;;;;2.00;1.00;;;;;17.41;73.93;101101.00;6212222;22;45412;-66
2023/09/19 06:28:28;;;;;;;;;;;;;;;;;;;;;
2023/09/19 06:30:57;;;;;;;;;2.75;1.50;;;;;17.51;73.79;101106.75;6214685;22;73800;-67
2023/09/19 06:33:23;;;;;;;;;3.00;1.75;;;;;17.37;73.85;101092.19;6187799;22;45251;-69
2023/09/19 06:36:01;;;;;;;;;;;;;;;;;;;;;
2023/09/19 06:38:40;;;;;;;;;;;;;;;;;;;;;
2023/09/19 06:41:18;;;;;;;;;1.75;1.50;;;;;17.33;73.83;101090.63;6214512;22;75170;-68
2023/09/19 06:43:43;;;;;;;;;4.75;3.75;;;;;17.26;74.22;101089.22;6215056;22;45317;-69
2023/09/19 06:46:12;;;;;;;;;1.50;1.00;;;;;17.24;74.24;101085.75;6215459;22;45276;-69
2023/09/19 06:48:38;;;;;;;;;3.00;2.00;;;;;17.31;74.30;101095.22;6187915;22;45357;-68
2023/09/19 06:51:05;;;;;;;;;5.50;2.00;;;;;17.19;74.24;101068.91;6187003;22;47284;-70
2023/09/19 06:53:32;;;;;;;;;3.00;2.00;;;;;17.48;73.68;101123.97;6215300;22;45291;-69
2023/09/19 06:55:58;;;;;;;;;2.00;1.00;;;;;17.26;73.60;101089.22;6188760;22;45338;-69
2023/09/19 06:58:23;;;;;;;;;1.25;1.25;;;;;17.08;74.09;101055.16;6185968;22;45387;-70
2023/09/19 07:00:55;;;;;;;;;2.75;1.50;;;;;17.50;73.52;101122.06;6186645;22;46433;-70
2023/09/19 07:03:26;;;;;;;;;2.75;1.75;;;;;17.52;73.99;101128.22;6187561;22;45508;-69
2023/09/19 07:05:58;;;;;;;;;3.00;2.00;;;;;17.19;73.98;101074.31;6214377;22;45330;-69
2023/09/19 07:08:28;;;;;;;;;2.00;2.00;;;;;17.50;74.09;101108.56;6185779;22;45503;-68
2023/09/19 07:11:06;;;;;;;;;2.50;2.50;;;;;17.44;74.34;101106.22;6213044;22;45598;-69
2023/09/19 07:13:32;;;;;;;;;3.75;0.25;;;;;17.46;73.91;101103.41;6185461;22;45294;-69
2023/09/19 07:15:59;;;;;;;;;2.00;2.00;;;;;17.46;73.75;101104.31;6215122;22;45479;-70
2023/09/19 07:18:25;;;;;;;;;1.00;1.00;;;;;17.47;73.42;101095.22;6211710;22;45395;-70
2023/09/19 07:20:50;;;;;;;;;3.00;2.50;;;;;17.55;73.65;101105.63;6187463;22;47520;-69
2023/09/19 07:23:18;;;;;;;;;3.00;2.00;;;;;17.58;73.40;101097.34;6214237;22;45363;-70
2023/09/19 07:25:43;;;;;;;;;4.75;2.00;;;;;17.50;72.93;101081.56;6214650;22;45429;-69
2023/09/19 07:28:09;;;;;;;;;1.25;1.25;;;;;17.51;73.24;101085.16;6214463;22;45318;-69
2023/09/19 07:30:37;;;;;;;;;3.00;1.00;;;;;17.69;73.27;101116.53;6214096;22;45347;-70
2023/09/19 07:33:04;;;;;;;;;2.25;2.25;;;;;17.79;73.48;101116.84;6214299;22;45304;-69
2023/09/19 07:35:29;;;;;;;;;1.00;1.00;;;;;17.57;72.76;101079.41;6214005;22;45538;-69
2023/09/19 07:37:56;;;;;;;;;2.25;1.50;;;;;17.63;73.26;101083.59;6215219;22;45383;-69
2023/09/19 07:40:23;;;;;;;;;2.25;2.00;;;;;17.68;73.16;101084.22;6213692;22;46249;-70
2023/09/19 07:42:48;;;;;;;;;2.25;1.00;;;;;17.67;72.49;101086.03;6185666;22;45386;-70
2023/09/19 07:45:14;;;;;;;;;2.00;2.00;;;;;17.89;72.69;101112.72;6184759;22;45943;-70
2023/09/19 07:47:44;;;;;;;;;1.00;1.00;;;;;17.84;72.25;101100.38;6187062;22;45508;-69
2023/09/19 07:50:12;;;;;;;;;1.00;1.00;;;;;17.97;72.31;101117.66;6213916;22;46895;-69
2023/09/19 07:52:39;;;;;;;;;5.00;1.00;;;;;17.96;71.82;101108.69;6214432;22;45230;-69
2023/09/19 07:55:08;;;;;;;;;3.00;3.00;;;;;17.97;71.47;101114.97;6187351;22;45352;-70
2023/09/19 07:57:35;;;;;;;;;2.00;2.00;;;;;17.80;71.90;101086.19;6214057;22;45359;-69
2023/09/19 08:00:00;;;;;;;;;3.00;1.25;;;;;17.70;71.50;101068.78;6186528;22;47408;-70
2023/09/19 08:02:28;;;;;;;;;1.75;1.75;;;;;17.83;71.84;101085.16;6214407;22;45373;-70
2023/09/19 08:04:53;;;;;;;;;2.25;2.00;;;;;17.96;71.04;101121.34;6214328;22;45541;-70
2023/09/19 08:07:19;;;;;;;;;1.00;1.00;;;;;17.82;71.11;101089.69;6214586;22;45300;-69
2023/09/19 08:09:48;;;;;;;;;1.00;1.00;;;;;17.82;70.62;101086.97;6211320;22;46063;-69
2023/09/19 08:12:14;;;;;;;;;2.00;1.25;;;;;17.93;71.05;101086.41;6212049;22;45645;-70
2023/09/19 08:14:41;;;;;;;;;3.00;1.00;;;;;17.85;70.88;101067.91;6186367;22;45750;-70
2023/09/19 08:17:08;;;;;;;;;1.75;1.75;;;;;17.84;70.83;101063.47;6214652;22;45284;-69
2023/09/19 08:19:33;;;;;;;;;2.50;1.00;;;;;18.24;70.19;101130.53;6215207;22;45608;-70
2023/09/19 08:21:59;;;;;;;;;4.00;1.00;;;;;18.26;70.92;101123.19;6212682;22;45324;-69
2023/09/19 08:24:28;;;;;;;;;3.00;1.50;;;;;18.11;70.65;101096.13;6212464;22;45527;-69
2023/09/19 08:26:57;;;;;;;;;2.00;1.75;;;;;18.29;71.18;101132.03;6213925;22;45721;-71
2023/09/19 08:29:27;;;;;;;;;4.75;2.00;;;;;18.06;70.61;101081.13;6187348;22;47321;-70
2023/09/19 08:31:58;;;;;;;;;4.00;1.00;;;;;18.12;71.04;101088.91;6212274;22;45320;-69
2023/09/19 08:34:24;;;;;;;;;1.00;1.00;;;;;18.32;70.59;101121.00;6208231;22;45384;-70
2023/09/19 08:36:57;;;;;;;;;1.75;1.00;;;;;18.20;70.05;101094.72;6212032;22;45452;-69
2023/09/19 08:39:23;;;;;;;;;3.00;2.00;;;;;18.20;70.36;101101.97;6212675;22;46199;-69
2023/09/19 08:41:48;;;;;;;;;2.00;1.25;;;;;18.22;70.17;101098.19;6212857;22;45678;-70
2023/09/19 08:44:14;;;;;;;;;3.50;1.00;;;;;18.13;70.19;101080.69;6184631;22;45341;-69
2023/09/19 08:46:41;;;;;;;;;2.00;2.00;;;;;18.51;70.58;101137.03;6183480;22;45613;-69
2023/09/19 08:49:53;;;;;;;;;1.50;1.50;;;;;18.53;70.75;101131.53;6183485;22;47714;-69
2023/09/19 08:52:36;;;;;;;;;1.00;1.00;;;;;18.54;71.06;101132.41;6177554;22;45629;-70
2023/09/19 08:55:10;;;;;;;;;3.50;1.25;;;;;18.50;70.48;101121.75;6184570;22;45277;-69
2023/09/19 08:57:39;;;;;;;;;3.00;2.00;;;;;18.36;70.49;101094.69;6185566;22;45490;-70
2023/09/19 09:00:09;;;;;;;;;2.25;0.00;;;;;18.62;70.71;101130.09;6210207;22;46354;-69
2023/09/19 09:02:40;;;;;;;;;3.00;1.25;;;;;18.68;70.49;101140.56;6209409;22;45439;-69
2023/09/19 09:05:06;;;;;;;;;0.50;0.50;;;;;18.50;70.58;101102.84;6183760;22;45742;-70
2023/09/19 09:07:34;;;;;;;;;1.50;0.50;;;;;18.47;70.16;101086.78;6210612;22;45515;-69
2023/09/19 09:10:00;;;;;;;;;1.00;1.00;;;;;18.50;70.62;101091.16;6183800;22;46623;-69
2023/09/19 09:12:26;;;;;;;;;0.50;0.50;;;;;18.80;70.37;101126.28;6211257;22;45336;-69
2023/09/19 09:14:52;;;;;;;;;0.50;0.50;;;;;18.78;69.57;101125.50;6212151;22;45447;-69
2023/09/19 09:17:20;;;;;;;;;1.00;1.00;;;;;18.65;69.81;101101.03;6184261;22;45463;-69
2023/09/19 09:19:46;;;;;;;;;1.00;0.00;;;;;18.82;69.79;101118.94;6212792;22;45877;-69
2023/09/19 09:22:11;;;;;;;;;1.25;0.25;;;;;18.77;69.68;101093.16;6183943;22;45981;-69
2023/09/19 09:24:50;;;;;;;;;0.75;0.75;;;;;18.79;69.64;101096.63;6211436;22;45392;-69
2023/09/19 09:27:16;;;;;;;;;0.00;0.00;;;;;18.82;68.95;101091.03;6210212;22;45476;-69
2023/09/19 09:29:44;;;;;;;;;1.50;1.50;;;;;19.03;69.42;101124.91;6185736;22;46412;-69
2023/09/19 09:32:28;;;;;;;;;2.50;1.50;;;;;19.11;68.61;101119.03;6213045;22;45569;-69
2023/09/19 09:35:00;;;;;;;;;1.50;0.25;;;;;19.00;69.00;101103.44;6187518;22;45544;-68
2023/09/19 09:37:28;;;;;;;;;0.75;0.75;;;;;18.94;68.97;101070.50;6213790;22;45521;-70
2023/09/19 09:39:58;;;;;;;;;2.00;0.50;;;;;19.29;68.74;101118.84;6213407;22;45987;-71
2023/09/19 09:42:32;;;;;;;;;0.75;0.25;;;;;19.35;68.81;101116.63;6185854;22;45923;-71
2023/09/19 09:45:16;;;;;;;;;1.75;1.50;;;;;19.44;67.91;101117.84;6215568;22;45619;-71
2023/09/19 09:47:55;;;;;;;;;0.75;0.75;;;;;19.48;67.22;101116.72;6214809;22;45482;-71
2023/09/19 09:50:44;;;;;;;;;1.50;1.50;;;;;19.47;66.95;101122.22;6215367;22;45504;-71
2023/09/19 09:53:25;;;;;;;;;1.50;0.50;;;;;19.59;66.03;101125.00;6214791;22;45605;-71
2023/09/19 09:56:06;;;;;;;;;1.00;1.00;;;;;19.63;66.20;101123.84;6186774;22;45366;-71
2023/09/19 09:58:54;;;;;;;;;0.00;0.00;;;;;19.69;65.58;101113.56;6215440;22;45446;-71
2023/09/19 10:01:21;;;;;;;;;3.50;1.00;;;;;19.65;65.61;101104.78;6187901;22;47153;-71
2023/09/19 10:03:49;;;;;;;;;3.50;0.00;;;;;19.78;64.71;101110.31;6213277;22;45359;-71
2023/09/19 10:06:26;;;;;;;;;3.00;0.00;;;;;19.82;64.89;101102.84;6215465;22;45313;-71
2023/09/19 10:09:01;;;;;;;;;0.75;0.75;;;;;19.79;64.19;101098.50;6214658;22;45495;-71
2023/09/19 10:11:30;;;;;;;;;1.75;0.00;;;;;19.88;63.88;101100.63;6187813;22;48013;-71
2023/09/19 10:13:55;;;;;;;;;0.00;0.00;;;;;19.82;63.94;101079.34;6187597;22;45399;-71
2023/09/19 10:16:24;;;;;;;;;2.00;0.75;;;;;19.96;63.19;101097.38;6215325;22;45398;-71
2023/09/19 10:18:54;;;;;;;;;0.50;0.50;;;;;19.98;63.89;101092.75;6215322;22;45383;-71
2023/09/19 10:21:22;;;;;;;;;4.00;2.00;;;;;20.04;63.34;101091.47;6215186;22;46247;-71
2023/09/19 10:23:51;;;;;;;;;0.50;0.50;;;;;20.11;63.16;101103.63;6185945;22;45392;-71
2023/09/19 10:26:17;;;;;;;;;1.00;1.00;;;;;19.89;63.25;101058.13;6215063;22;45774;-71
2023/09/19 10:28:47;;;;;;;;;0.75;0.75;;;;;20.15;63.45;101083.50;6214792;22;45470;-71
2023/09/19 10:31:17;;;;;;;;;1.00;0.00;;;;;20.06;62.86;101060.56;6215241;22;45538;-71
2023/09/19 10:33:43;;;;;;;;;0.75;0.00;;;;;20.25;62.95;101079.19;6214416;22;45563;-71
2023/09/19 10:36:11;;;;;;;;;1.00;1.00;;;;;20.27;62.66;101082.66;6188214;22;45393;-71
2023/09/19 10:38:40;;;;;;;;;1.50;0.75;;;;;20.22;62.57;101064.97;6214422;22;45304;-71
2023/09/19 10:41:06;;;;;;;;;0.00;0.00;;;;;20.26;62.72;101066.50;6214784;22;45349;-71
2023/09/19 10:43:33;;;;;;;;;1.00;1.00;;;;;20.32;62.95;101066.94;6187223;22;45654;-71
2023/09/19 10:46:10;;;;;;;;;1.00;1.00;;;;;20.43;62.84;101081.59;6187437;22;45376;-71
2023/09/19 10:48:36;;;;;;;;;0.00;0.00;;;;;20.35;61.65;101072.16;6215482;22;45324;-71
2023/09/19 10:51:09;;;;;;;;;2.00;0.00;;;;;20.32;61.81;101057.94;6214783;22;45586;-71
2023/09/19 10:53:53;;;;;;;;;0.50;0.00;;;;;20.44;61.56;101081.50;6212710;22;45463;-71
2023/09/19 10:56:27;;;;;;;;;1.00;1.00;;;;;20.39;62.37;101069.25;6215321;22;45515;-71
2023/09/19 10:59:09;;;;;;;;;2.25;1.00;;;;;20.24;61.89;101025.06;6214923;22;45596;-71
2023/09/19 11:02:17;;;;;;;;;1.00;1.00;;;;;20.52;62.36;101070.13;6187513;22;46703;-71
2023/09/19 11:04:42;;;;;;;;;1.75;1.00;;;;;20.51;62.36;101065.66;6187178;22;45470;-71
2023/09/19 11:07:10;;;;;;;;;1.00;1.00;;;;;20.58;61.61;101075.13;6215545;22;45294;-72
2023/09/19 11:09:53;;;;;;;;;1.00;1.00;;;;;20.60;61.72;101078.59;6186789;22;45895;-71
2023/09/19 11:12:36;;;;;;;;;3.00;1.50;;;;;20.60;61.75;101077.72;6214104;22;46087;-71
2023/09/19 11:15:07;;;;;;;;;0.00;0.00;;;;;20.48;62.17;101050.50;6186621;22;45709;-71
2023/09/19 11:17:46;;;;;;;;;3.50;0.50;;;;;20.59;61.38;101074.16;6188137;22;45544;-72
2023/09/19 11:22:50;;;;;;;;;1.00;1.00;;;;;20.61;61.44;101072.19;6213748;22;45259;-71
2023/09/19 11:25:29;;;;;;;;;0.00;0.00;;;;;20.62;61.51;101062.22;6187612;22;45427;-71
2023/09/19 11:28:27;;;;;;;;;1.25;0.25;;;;;20.64;61.69;101060.31;6187246;22;45270;-71
2023/09/19 11:30:54;;;;;;;;;0.25;0.25;;;;;20.66;61.36;101058.34;6214480;22;45505;-71
2023/09/19 11:33:38;;;;;;;;;1.00;1.00;;;;;20.68;61.14;101062.72;6186818;22;47935;-71
2023/09/19 11:36:08;;;;;;;;;0.75;0.75;;;;;20.69;60.97;101047.28;6211411;22;45472;-72
2023/09/19 11:38:43;;;;;;;;;1.00;1.00;;;;;20.71;61.22;101048.03;6214345;22;45630;-71
2023/09/19 11:41:38;;;;;;;;;0.50;0.50;;;;;20.55;61.51;101027.41;6214514;22;45495;-71
2023/09/19 11:44:10;;;;;;;;;0.25;0.25;;;;;20.73;61.32;101065.97;6203583;22;46188;-71
2023/09/19 11:46:51;;;;;;;;;0.75;0.75;;;;;20.75;61.06;101056.81;6214715;22;45774;-71
2023/09/19 11:49:21;;;;;;;;;0.00;0.00;;;;;20.68;61.30;101031.97;6187760;22;45419;-71
2023/09/19 11:51:50;;;;;;;;;1.00;1.00;;;;;20.62;61.12;101014.28;6214694;22;45467;-71
2023/09/19 11:54:17;;;;;;;;;1.50;1.00;;;;;20.81;61.77;101053.69;6213167;22;46118;-72
2023/09/19 11:56:44;;;;;;;;;1.00;1.00;;;;;20.80;60.57;101035.66;6214760;22;45434;-72
2023/09/19 11:59:09;;;;;;;;;1.75;1.00;;;;;20.85;61.22;101047.09;6187120;22;45809;-71
2023/09/19 12:01:40;;;;;;;;;0.75;0.75;;;;;20.93;60.97;101060.94;6215069;22;45295;-71